createdAt,value
2023-01-27T00:04:52.288Z,100600.77
2023-01-27T00:10:01.290Z,100598.55
2023-01-27T00:15:13.170Z,100593.14
2023-01-27T00:20:39.005Z,100596.88
2023-01-27T00:25:51.037Z,100595.03
2023-01-27T00:30:59.531Z,100592.98
2023-01-27T00:36:13.774Z,100602.16
2023-01-27T00:41:29.223Z,100607.77
2023-01-27T00:46:41.040Z,100608.27
2023-01-27T00:52:00.116Z,100611.31
2023-01-27T00:57:18.518Z,100608.39
2023-01-27T01:02:33.827Z,100616.16
2023-01-27T01:07:53.849Z,100622.89
2023-01-27T01:13:10.314Z,100622.88
2023-01-27T01:18:26.999Z,100618.16
2023-01-27T01:23:49.755Z,100614.63
2023-01-27T01:28:57.902Z,100617.18
2023-01-27T01:34:17.695Z,100610.60
2023-01-27T01:39:31.249Z,100609.78
2023-01-27T01:44:52.997Z,100608.27
2023-01-27T01:50:05.874Z,100606.41
2023-01-27T01:55:17.083Z,100608.27
2023-01-27T02:00:33.325Z,100610.45
2023-01-27T02:05:50.202Z,100614.56
2023-01-27T02:11:12.149Z,100618.67
2023-01-27T02:16:19.982Z,100617.51
2023-01-27T02:21:27.256Z,100616.98
2023-01-27T02:26:38.355Z,100621.21
2023-01-27T02:31:45.545Z,100625.12
2023-01-27T02:36:57.396Z,100618.16
2023-01-27T02:42:08.355Z,100623.06
2023-01-27T02:47:15.426Z,100623.25
2023-01-27T02:52:23.224Z,100622.74
2023-01-27T02:57:30.400Z,100620.21
2023-01-27T03:03:00.034Z,100623.26
2023-01-27T03:08:07.014Z,100622.75
2023-01-27T03:13:14.042Z,100618.36
2023-01-27T03:18:22.606Z,100619.58
2023-01-27T03:23:29.778Z,100627.39
2023-01-27T03:28:37.100Z,100628.93
2023-01-27T03:33:57.388Z,100629.27
2023-01-27T03:39:28.869Z,100623.87
2023-01-27T03:44:53.817Z,100620.53
2023-01-27T03:50:00.794Z,100615.11
2023-01-27T03:55:09.591Z,100620.70
2023-01-27T04:00:18.150Z,100621.20
2023-01-27T04:05:42.841Z,100619.33
2023-01-27T04:11:09.853Z,100614.75
2023-01-27T04:16:17.146Z,100618.33
2023-01-27T04:21:24.545Z,100611.74
2023-01-27T04:26:34.546Z,100613.27
2023-01-27T04:31:42.689Z,100613.58
2023-01-27T04:36:49.815Z,100613.23
2023-01-27T04:41:56.997Z,100616.91
2023-01-27T04:47:04.248Z,100615.92
2023-01-27T04:52:11.106Z,100616.27
2023-01-27T04:57:17.828Z,100620.02
2023-01-27T05:02:26.576Z,100622.91
2023-01-27T05:07:33.639Z,100623.98
2023-01-27T05:12:40.603Z,100627.84
2023-01-27T05:17:48.316Z,100635.95
2023-01-27T05:23:15.885Z,100644.05
2023-01-27T05:28:22.842Z,100649.29
2023-01-27T05:33:29.840Z,100655.17
2023-01-27T05:38:37.157Z,100658.55
2023-01-27T05:43:45.829Z,100660.23
2023-01-27T05:48:54.912Z,100662.09
2023-01-27T05:54:02.078Z,100664.11
2023-01-27T05:59:12.934Z,100670.86
2023-01-27T06:04:19.886Z,100672.56
2023-01-27T06:09:26.787Z,100671.35
2023-01-27T06:14:33.857Z,100675.19
2023-01-27T06:19:40.741Z,100679.56
2023-01-27T06:24:47.594Z,100684.46
2023-01-27T06:29:54.534Z,100687.33
2023-01-27T06:35:01.551Z,100693.26
2023-01-27T06:40:10.326Z,100695.98
2023-01-27T06:45:17.273Z,100700.19
2023-01-27T06:50:24.897Z,100703.77
2023-01-27T06:55:32.123Z,100706.19
2023-01-27T07:00:39.997Z,100704.33
2023-01-27T07:05:47.010Z,100706.06
2023-01-27T07:10:53.897Z,100707.41
2023-01-27T07:16:01.661Z,100702.90
2023-01-27T07:21:09.293Z,100704.83
2023-01-27T07:26:24.963Z,100708.91
2023-01-27T07:31:32.364Z,100706.92
2023-01-27T07:36:39.564Z,100707.31
2023-01-27T07:41:49.019Z,100713.29
2023-01-27T07:46:56.473Z,100720.41
2023-01-27T07:52:03.421Z,100723.66
2023-01-27T07:57:34.162Z,100722.46
2023-01-27T08:02:54.510Z,100724.34
2023-01-27T08:08:13.725Z,100719.77
2023-01-27T08:19:28.230Z,100728.59
2023-01-27T08:24:58.764Z,100731.67
2023-01-27T08:30:21.515Z,100732.77
2023-01-27T08:35:51.856Z,100736.52
2023-01-27T08:41:12.365Z,100742.14
2023-01-27T08:46:49.314Z,100746.30
2023-01-27T08:52:01.099Z,100750.96
2023-01-27T08:57:24.809Z,100748.98
2023-01-27T09:02:39.518Z,100747.65
2023-01-27T09:07:57.209Z,100750.73
2023-01-27T09:13:18.644Z,100753.51
2023-01-27T09:18:34.627Z,100761.33
2023-01-27T09:23:45.390Z,100771.39
2023-01-27T09:28:59.455Z,100777.65
2023-01-27T09:34:11.210Z,100778.81
2023-01-27T09:39:20.241Z,100781.21
2023-01-27T09:44:43.323Z,100787.48
2023-01-27T09:50:05.966Z,100794.94
2023-01-27T09:55:23.398Z,100799.04
2023-01-27T10:00:39.758Z,100793.60
2023-01-27T10:06:10.162Z,100795.14
2023-01-27T10:11:28.466Z,100787.05
2023-01-27T10:17:04.406Z,100785.02
2023-01-27T10:22:20.990Z,100783.70
2023-01-27T10:27:31.807Z,100785.77
2023-01-27T10:32:46.543Z,100785.05
2023-01-27T10:38:07.042Z,100781.66
2023-01-27T10:43:37.507Z,100783.89
2023-01-27T10:49:05.360Z,100783.30
2023-01-27T10:54:35.990Z,100784.11
2023-01-27T11:00:51.324Z,100788.50
2023-01-27T11:05:43.864Z,100789.75
2023-01-27T11:11:12.958Z,100791.97
2023-01-27T11:16:31.063Z,100786.35
2023-01-27T11:21:43.138Z,100786.74
2023-01-27T11:27:07.136Z,100786.60
2023-01-27T11:32:34.060Z,100785.44
2023-01-27T11:37:45.611Z,100784.39
2023-01-27T11:42:58.354Z,100780.07
2023-01-27T11:48:18.605Z,100780.88
2023-01-27T11:53:40.545Z,100783.87
2023-01-27T11:59:05.197Z,100788.21
2023-01-27T12:04:29.511Z,100789.67
2023-01-27T12:09:50.335Z,100788.28
2023-01-27T12:15:06.698Z,100782.73
2023-01-27T12:20:42.977Z,100781.89
2023-01-27T12:26:10.952Z,100777.38
2023-01-27T12:31:43.164Z,100771.68
2023-01-27T12:37:14.044Z,100767.70
2023-01-27T12:42:43.452Z,100770.81
2023-01-27T12:48:18.303Z,100767.83
2023-01-27T12:53:37.052Z,100768.23
2023-01-27T12:58:58.621Z,100771.27
2023-01-27T13:04:17.949Z,100779.56
2023-01-27T13:09:42.223Z,100776.11
2023-01-27T13:14:55.917Z,100786.44
2023-01-27T13:20:19.045Z,100785.12
2023-01-27T13:25:38.115Z,100791.02
2023-01-27T13:30:52.731Z,100800.95
2023-01-27T13:36:17.182Z,100807.71
2023-01-27T13:41:30.871Z,100810.23
2023-01-27T13:46:47.524Z,100817.16
2023-01-27T13:52:10.129Z,100828.05
2023-01-27T13:57:53.700Z,100828.96
2023-01-27T14:03:31.546Z,100835.21
2023-01-27T14:08:56.537Z,100839.28
2023-01-27T14:14:29.989Z,100844.07
2023-01-27T14:19:53.951Z,100845.81
2023-01-27T14:25:09.415Z,100851.25
2023-01-27T14:30:24.338Z,100853.44
2023-01-27T14:35:43.994Z,100852.23
2023-01-27T14:41:09.220Z,100856.65
2023-01-27T14:46:40.691Z,100854.56
2023-01-27T14:51:55.819Z,100851.96
2023-01-27T14:57:39.101Z,100854.30
2023-01-27T15:02:59.316Z,100841.36
2023-01-27T15:08:37.302Z,100845.05
2023-01-27T15:14:21.204Z,100853.34
2023-01-27T15:19:44.841Z,100856.81
2023-01-27T15:25:28.072Z,100857.59
2023-01-27T15:31:08.172Z,100863.83
2023-01-27T15:36:32.267Z,100870.39
2023-01-27T15:41:52.002Z,100871.20
2023-01-27T15:47:10.276Z,100875.38
2023-01-27T15:52:30.065Z,100877.72
2023-01-27T15:57:40.233Z,100879.52
2023-01-27T16:02:53.565Z,100884.05
2023-01-27T16:08:03.792Z,100885.40
2023-01-27T16:13:25.614Z,100885.21
2023-01-27T16:18:54.163Z,100883.53
2023-01-27T16:24:06.697Z,100886.05
2023-01-27T16:29:35.514Z,100884.53
2023-01-27T16:34:44.347Z,100886.05
2023-01-27T16:39:56.404Z,100887.88
2023-01-27T16:45:16.980Z,100890.75
2023-01-27T16:50:37.765Z,100898.17
2023-01-27T16:56:00.186Z,100901.88
2023-01-27T17:01:24.724Z,100904.65
2023-01-27T17:06:32.831Z,100905.71
2023-01-27T17:11:42.955Z,100901.67
2023-01-27T17:16:51.440Z,100901.36
2023-01-27T17:22:01.081Z,100899.20
2023-01-27T17:27:15.847Z,100900.58
2023-01-27T17:32:31.593Z,100900.60
2023-01-27T17:37:44.797Z,100907.22
2023-01-27T17:43:08.557Z,100911.67
2023-01-27T17:48:38.710Z,100919.99
2023-01-27T17:53:46.657Z,100925.61
2023-01-27T17:59:01.176Z,100934.56
2023-01-27T18:04:14.541Z,100941.83
2023-01-27T18:09:28.589Z,100942.36
2023-01-27T18:14:37.083Z,100943.70
2023-01-27T18:19:53.373Z,100946.58
2023-01-27T18:25:21.638Z,100952.02
2023-01-27T18:30:30.107Z,100950.69
2023-01-27T18:35:41.176Z,100953.75
2023-01-27T18:40:53.638Z,100958.84
2023-01-27T18:46:02.656Z,100957.81
2023-01-27T18:51:13.539Z,100959.35
2023-01-27T18:56:20.706Z,100962.89
2023-01-27T19:01:28.033Z,100961.33
2023-01-27T19:06:35.176Z,100958.95
2023-01-27T19:11:42.401Z,100959.60
2023-01-27T19:16:49.536Z,100961.95
2023-01-27T19:21:56.549Z,100970.44
2023-01-27T19:27:04.359Z,100971.78
2023-01-27T19:32:15.404Z,100970.26
2023-01-27T19:37:23.276Z,100969.25
2023-01-27T19:42:30.515Z,100977.87
2023-01-27T19:47:37.760Z,100979.40
2023-01-27T19:52:45.055Z,100985.34
2023-01-27T19:57:53.273Z,100990.45
2023-01-27T20:03:00.937Z,100988.56
2023-01-27T20:08:13.975Z,100993.43
2023-01-27T20:13:22.095Z,100997.67
2023-01-27T20:18:28.928Z,101011.22
2023-01-27T20:23:36.024Z,101014.91
2023-01-27T20:28:48.350Z,101019.45
2023-01-27T20:33:55.483Z,101015.89
2023-01-27T20:39:02.888Z,101022.80
2023-01-27T20:44:13.536Z,101025.17
2023-01-27T20:49:20.523Z,101029.08
2023-01-27T20:54:28.556Z,101027.88
2023-01-27T20:59:35.857Z,101028.73
2023-01-27T21:04:43.006Z,101031.42
2023-01-27T21:09:50.818Z,101028.05
2023-01-27T21:14:58.011Z,101026.17
2023-01-27T21:20:05.336Z,101025.14
2023-01-27T21:25:13.613Z,101025.04
2023-01-27T21:30:20.897Z,101030.39
2023-01-27T21:35:27.892Z,101033.09
2023-01-27T21:40:34.968Z,101031.69
2023-01-27T21:45:41.989Z,101032.30
2023-01-27T21:50:54.193Z,101038.51
2023-01-27T21:56:05.134Z,101032.19
2023-01-27T22:01:13.044Z,101028.45
2023-01-27T22:06:20.163Z,101020.81
2023-01-27T22:11:27.100Z,101019.46
2023-01-27T22:16:34.545Z,101017.56
2023-01-27T22:21:41.700Z,101017.58
2023-01-27T22:26:48.730Z,101012.64
2023-01-27T22:31:56.208Z,101010.77
2023-01-27T22:37:04.066Z,101006.05
2023-01-27T22:42:11.314Z,101004.73
2023-01-27T22:47:20.617Z,101004.60
2023-01-27T22:52:27.688Z,101005.77
2023-01-27T22:57:35.160Z,101001.73
2023-01-27T23:02:42.158Z,101003.09
2023-01-27T23:07:50.529Z,101002.76
2023-01-27T23:12:57.432Z,100997.34
2023-01-27T23:18:11.504Z,100998.66
2023-01-27T23:23:19.799Z,100995.40
2023-01-27T23:28:26.786Z,100999.92
2023-01-27T23:33:37.452Z,100999.97
2023-01-27T23:38:44.346Z,100997.39
2023-01-27T23:43:56.355Z,100995.52
2023-01-27T23:49:03.377Z,100993.15
2023-01-27T23:54:10.406Z,100992.11
2023-01-27T23:59:17.694Z,100990.19
